Time;durP1;ratioP1;P1;durP2;ratioP2;P2;SDS_P1;SDS_P2;PMS_P1;PMS_P2;Temp;Humidity;BMP_temperature;BMP_pressure;BME280_temperature;BME280_humidity;BME280_pressure;Samples;Min_cycle;Max_cycle;Signal;HPM_P1;HPM_P2
2022/01/14 00:00:06;;;;;;;;;16.00;12.00;;;;;5.34;100.00;103651.81;5061552;28;11131;-71
2022/01/14 00:02:33;;;;;;;;;10.50;9.00;;;;;5.30;100.00;103636.81;5061173;28;11106;-71
2022/01/14 00:05:00;;;;;;;;;10.50;6.25;;;;;5.32;100.00;103653.72;5068724;28;10927;-71
2022/01/14 00:07:26;;;;;;;;;10.25;9.00;;;;;5.31;100.00;103659.16;5059450;28;10858;-72
2022/01/14 00:09:54;;;;;;;;;15.25;10.00;;;;;5.34;100.00;103648.25;5060957;28;11063;-71
2022/01/14 00:12:26;;;;;;;;;15.00;10.00;;;;;5.32;100.00;103640.28;5061951;28;11177;-72
2022/01/14 00:15:11;;;;;;;;;7.00;7.00;;;;;5.35;100.00;103636.56;5061130;28;11224;-72
2022/01/14 00:17:38;;;;;;;;;13.25;12.25;;;;;5.30;100.00;103636.81;5061707;28;11031;-71
2022/01/14 00:20:05;;;;;;;;;11.00;7.75;;;;;5.25;100.00;103633.53;5060422;28;11291;-72
2022/01/14 00:22:31;;;;;;;;;15.00;12.75;;;;;5.31;100.00;103629.63;5058741;28;11104;-72
2022/01/14 00:35:27;;;;;;;;;14.50;11.00;;;;;5.34;100.00;103641.06;5060295;28;11083;-71
2022/01/14 00:37:54;;;;;;;;;11.25;9.50;;;;;5.39;100.00;103635.44;5060846;28;11251;-72
2022/01/14 00:40:21;;;;;;;;;12.50;12.25;;;;;5.34;100.00;103630.31;5060516;28;11020;-71
2022/01/14 00:42:49;;;;;;;;;13.00;12.00;;;;;5.36;100.00;103619.47;5060751;28;12262;-71
2022/01/14 00:45:16;;;;;;;;;11.50;9.75;;;;;5.36;100.00;103614.97;5062381;28;11940;-72
2022/01/14 00:47:43;;;;;;;;;14.00;13.50;;;;;5.31;100.00;103606.31;5059027;28;10841;-72
2022/01/14 00:50:12;;;;;;;;;17.00;13.75;;;;;5.28;100.00;103608.31;5058882;28;11441;-72
2022/01/14 00:52:40;;;;;;;;;17.00;14.00;;;;;5.34;100.00;103606.16;5060399;28;11242;-72
2022/01/14 00:55:12;;;;;;;;;8.50;8.50;;;;;5.34;100.00;103610.66;5060274;28;15448;-72
2022/01/14 01:00:30;;;;;;;;;13.00;10.00;;;;;5.37;100.00;103608.66;5060767;28;11122;-72
2022/01/14 01:02:58;;;;;;;;;11.75;10.00;;;;;5.36;100.00;103601.53;5060931;28;11141;-72
2022/01/14 01:05:24;;;;;;;;;16.50;12.50;;;;;5.36;100.00;103609.59;5059635;28;11175;-72
2022/01/14 01:08:12;;;;;;;;;13.25;11.25;;;;;5.36;100.00;103614.97;5059247;28;11083;-72
2022/01/14 01:10:47;;;;;;;;;11.50;11.50;;;;;5.40;100.00;103613.84;5058503;28;11287;-72
2022/01/14 01:13:26;;;;;;;;;14.75;11.00;;;;;5.41;100.00;103614.72;5061283;28;11030;-72
2022/01/14 01:15:53;;;;;;;;;15.75;13.25;;;;;5.39;100.00;103617.50;5060589;28;11227;-72
2022/01/14 01:18:21;;;;;;;;;14.75;12.00;;;;;5.39;100.00;103620.16;5057920;28;11183;-72
2022/01/14 01:20:49;;;;;;;;;11.50;7.75;;;;;5.36;100.00;103611.44;5059750;28;11192;-72
2022/01/14 01:23:16;;;;;;;;;11.50;11.00;;;;;5.33;100.00;103612.47;5059968;28;11269;-72
2022/01/14 01:26:02;;;;;;;;;15.75;14.50;;;;;5.32;100.00;103602.69;5073899;28;10908;-71
2022/01/14 01:28:28;;;;;;;;;11.00;11.00;;;;;5.31;100.00;103602.78;5058937;28;11750;-72
2022/01/14 01:33:21;;;;;;;;;14.00;14.00;;;;;5.27;100.00;103598.53;5058802;28;11827;-71
2022/01/14 01:35:48;;;;;;;;;19.50;14.25;;;;;5.28;100.00;103593.06;5075500;28;11282;-72
2022/01/14 01:38:16;;;;;;;;;14.75;13.50;;;;;5.30;100.00;103596.53;5061620;28;11909;-72
2022/01/14 01:40:48;;;;;;;;;11.75;10.75;;;;;5.31;100.00;103594.72;5059525;28;11082;-72
2022/01/14 01:43:15;;;;;;;;;11.50;10.00;;;;;5.28;100.00;103585.00;5064664;28;11257;-72
2022/01/14 01:45:47;;;;;;;;;12.00;9.00;;;;;5.30;100.00;103587.59;5058392;28;11088;-72
2022/01/14 01:48:13;;;;;;;;;11.50;9.75;;;;;5.26;100.00;103589.59;5059887;28;11174;-72
2022/01/14 01:50:40;;;;;;;;;15.00;14.00;;;;;5.23;100.00;103590.66;5059137;28;11112;-72
2022/01/14 01:53:06;;;;;;;;;9.50;9.50;;;;;5.26;100.00;103586.91;5058339;28;11593;-72
2022/01/14 01:55:33;;;;;;;;;12.00;10.50;;;;;5.28;100.00;103582.31;5057898;28;11169;-72
2022/01/14 01:57:59;;;;;;;;;10.75;9.75;;;;;5.27;100.00;103585.09;5058476;28;11004;-71
2022/01/14 02:00:28;;;;;;;;;12.50;10.75;;;;;5.27;100.00;103585.09;5059802;28;11083;-72
2022/01/14 02:02:57;;;;;;;;;12.25;8.75;;;;;5.25;100.00;103596.78;5059509;28;10937;-72
2022/01/14 02:05:25;;;;;;;;;15.00;14.00;;;;;5.21;100.00;103589.00;5059157;28;11670;-72
2022/01/14 02:07:52;;;;;;;;;14.25;13.00;;;;;5.24;100.00;103586.16;5060186;28;11356;-72
2022/01/14 02:10:20;;;;;;;;;17.50;14.25;;;;;5.22;100.00;103588.91;5060406;28;10972;-71
2022/01/14 02:12:52;;;;;;;;;12.00;12.00;;;;;5.20;100.00;103589.94;5058423;28;11164;-72
2022/01/14 02:23:39;;;;;;;;;13.75;10.75;;;;;5.12;100.00;103590.38;5059500;28;11313;-72
2022/01/14 02:26:06;;;;;;;;;15.25;12.75;;;;;5.16;100.00;103591.91;5058717;28;11069;-72
2022/01/14 02:28:32;;;;;;;;;9.00;7.00;;;;;5.14;100.00;103591.16;5057754;28;12381;-72
2022/01/14 02:30:58;;;;;;;;;14.00;9.00;;;;;5.12;100.00;103585.00;5059369;28;10963;-72
2022/01/14 02:33:25;;;;;;;;;14.00;14.00;;;;;5.12;100.00;103592.19;5057234;28;11211;-72
2022/01/14 02:35:51;;;;;;;;;17.00;12.50;;;;;5.07;100.00;103570.09;5060624;28;12200;-72
2022/01/14 02:38:19;;;;;;;;;13.50;13.50;;;;;5.09;100.00;103578.94;5059896;28;11173;-71
2022/01/14 02:40:48;;;;;;;;;19.75;14.50;;;;;5.00;100.00;103574.09;5058483;28;11281;-72
2022/01/14 02:43:16;;;;;;;;;8.50;7.50;;;;;5.01;100.00;103579.38;5057181;28;11449;-71
2022/01/14 02:45:49;;;;;;;;;11.00;9.75;;;;;4.98;100.00;103578.69;5064201;28;10955;-72
2022/01/14 02:48:18;;;;;;;;;11.00;9.50;;;;;4.92;100.00;103583.41;5059290;28;11092;-72
2022/01/14 02:50:57;;;;;;;;;11.00;11.00;;;;;4.90;100.00;103576.41;5063108;28;11883;-72
2022/01/14 02:53:42;;;;;;;;;10.25;7.00;;;;;4.90;100.00;103579.94;5058773;28;11075;-72
2022/01/14 02:56:12;;;;;;;;;13.00;11.00;;;;;4.86;100.00;103575.72;5058251;28;11851;-72
2022/01/14 02:58:41;;;;;;;;;12.75;12.75;;;;;4.79;100.00;103571.63;5057264;28;11228;-72
2022/01/14 03:01:12;;;;;;;;;11.00;9.75;;;;;4.82;100.00;103578.66;5073672;28;11489;-72
2022/01/14 03:03:40;;;;;;;;;10.75;8.50;;;;;4.78;100.00;103571.72;5061069;28;11231;-72
2022/01/14 03:06:06;;;;;;;;;15.75;11.00;;;;;4.75;100.00;103572.75;5057373;28;11536;-71
2022/01/14 03:08:34;;;;;;;;;13.50;12.50;;;;;4.78;100.00;103561.00;5063306;28;11303;-72
2022/01/14 03:11:09;;;;;;;;;13.00;9.75;;;;;4.76;100.00;103561.06;5071518;28;11140;-72
2022/01/14 03:13:37;;;;;;;;;7.50;7.50;;;;;4.77;100.00;103564.63;5057048;28;11537;-71
2022/01/14 03:16:04;;;;;;;;;14.25;13.00;;;;;4.71;100.00;103560.47;5058903;28;11128;-72
2022/01/14 03:18:43;;;;;;;;;14.75;11.50;;;;;4.67;100.00;103574.09;5057527;28;11618;-72
2022/01/14 03:21:11;;;;;;;;;10.50;9.50;;;;;4.72;100.00;103574.75;5073117;28;11142;-72
2022/01/14 03:23:45;;;;;;;;;11.00;10.00;;;;;4.67;100.00;103580.34;5060823;28;11611;-72
2022/01/14 03:26:17;;;;;;;;;11.50;10.75;;;;;4.69;100.00;103572.19;5057773;28;12055;-72
2022/01/14 03:28:44;;;;;;;;;10.50;10.00;;;;;4.68;100.00;103567.78;5059022;28;12152;-72
2022/01/14 03:31:10;;;;;;;;;10.75;8.00;;;;;4.71;100.00;103559.56;5057551;28;11483;-72
2022/01/14 03:33:37;;;;;;;;;7.50;7.50;;;;;4.68;100.00;103552.56;5074067;28;11825;-72
2022/01/14 03:36:06;;;;;;;;;12.00;9.25;;;;;4.69;100.00;103559.66;5057315;28;11544;-72
2022/01/14 03:38:33;;;;;;;;;12.75;9.25;;;;;4.69;100.00;103564.16;5062159;28;11165;-71
2022/01/14 03:40:59;;;;;;;;;11.50;11.50;;;;;4.71;100.00;103557.78;5056920;28;11202;-72
2022/01/14 03:43:26;;;;;;;;;13.00;13.00;;;;;4.69;100.00;103545.38;5058201;28;11293;-72
2022/01/14 03:45:52;;;;;;;;;13.00;9.50;;;;;4.67;100.00;103544.59;5057409;28;11639;-72
2022/01/14 03:48:20;;;;;;;;;13.75;12.75;;;;;4.64;100.00;103545.63;5058368;28;10962;-72
2022/01/14 03:50:47;;;;;;;;;12.50;10.00;;;;;4.62;100.00;103532.31;5056272;28;11196;-72
2022/01/14 03:53:13;;;;;;;;;13.25;8.50;;;;;4.66;100.00;103538.34;5056739;28;11228;-72
2022/01/14 03:55:42;;;;;;;;;7.75;5.25;;;;;4.69;100.00;103537.31;5055704;28;11090;-72
2022/01/14 03:58:28;;;;;;;;;7.00;7.00;;;;;4.72;100.00;103547.91;5055435;28;11046;-72
2022/01/14 04:00:55;;;;;;;;;10.50;10.50;;;;;4.71;100.00;103547.06;5060652;28;11032;-72
2022/01/14 04:03:21;;;;;;;;;7.50;7.50;;;;;4.73;100.00;103544.28;5057136;28;11224;-72
2022/01/14 04:05:48;;;;;;;;;10.75;10.00;;;;;4.69;100.00;103553.41;5056428;28;11748;-72
2022/01/14 04:08:15;;;;;;;;;9.50;7.75;;;;;4.66;100.00;103549.09;5056173;28;11167;-72
2022/01/14 04:10:41;;;;;;;;;8.00;7.00;;;;;4.68;100.00;103551.69;5060236;28;11204;-72
2022/01/14 04:13:16;;;;;;;;;10.25;10.25;;;;;4.71;100.00;103543.47;5057373;28;11859;-72
2022/01/14 04:15:45;;;;;;;;;14.75;13.25;;;;;4.72;100.00;103539.88;5059848;28;11217;-72
2022/01/14 04:18:15;;;;;;;;;6.00;6.00;;;;;4.68;100.00;103538.28;5056694;28;11355;-72
2022/01/14 04:20:43;;;;;;;;;13.75;11.00;;;;;4.72;100.00;103529.13;5062145;28;10995;-72
2022/01/14 04:23:13;;;;;;;;;13.75;11.00;;;;;4.64;100.00;103526.84;5060189;28;11249;-72
2022/01/14 04:25:41;;;;;;;;;12.00;8.50;;;;;4.64;100.00;103530.41;5067540;28;11234;-72
2022/01/14 04:28:09;;;;;;;;;8.00;7.25;;;;;4.68;100.00;103528.41;5060291;28;11462;-72
2022/01/14 04:30:37;;;;;;;;;11.75;9.75;;;;;4.68;100.00;103528.41;5061665;28;10980;-72
2022/01/14 04:33:04;;;;;;;;;11.00;8.00;;;;;4.70;100.00;103523.81;5059464;28;11926;-72
2022/01/14 04:35:32;;;;;;;;;7.75;7.75;;;;;4.67;100.00;103509.72;5061050;28;11614;-72
2022/01/14 04:37:59;;;;;;;;;10.00;9.50;;;;;4.69;100.00;103515.84;5059918;28;12055;-71
2022/01/14 04:40:26;;;;;;;;;10.75;10.00;;;;;4.68;100.00;103520.34;5058817;28;11036;-72
2022/01/14 04:42:53;;;;;;;;;11.50;11.50;;;;;4.65;100.00;103499.06;5060996;28;11324;-72
2022/01/14 04:45:39;;;;;;;;;10.50;8.75;;;;;4.63;100.00;103492.91;5060786;28;11255;-71
2022/01/14 04:48:09;;;;;;;;;10.00;10.00;;;;;4.63;100.00;103495.59;5061270;28;11104;-72
2022/01/14 04:50:35;;;;;;;;;9.25;7.50;;;;;4.63;100.00;103492.91;5060026;28;11141;-72
2022/01/14 04:53:02;;;;;;;;;14.75;13.00;;;;;4.61;100.00;103494.81;5076874;28;11042;-71
2022/01/14 04:55:29;;;;;;;;;7.00;7.00;;;;;4.61;100.00;103492.16;5066994;28;11240;-72
2022/01/14 04:57:56;;;;;;;;;18.00;8.50;;;;;4.60;100.00;103490.41;5061071;28;11031;-72
2022/01/14 05:00:26;;;;;;;;;9.75;9.75;;;;;4.59;100.00;103496.72;5059695;28;11075;-71
2022/01/14 05:02:54;;;;;;;;;10.75;8.25;;;;;4.57;100.00;103493.28;5061250;28;12325;-71
2022/01/14 05:05:24;;;;;;;;;10.50;10.50;;;;;4.55;100.00;103493.34;5059693;28;11124;-72
2022/01/14 05:07:51;;;;;;;;;5.00;3.00;;;;;4.56;100.00;103492.41;5059002;28;11162;-72
2022/01/14 05:10:36;;;;;;;;;12.50;12.00;;;;;4.58;100.00;103484.28;5059587;28;11215;-72
2022/01/14 05:13:03;;;;;;;;;12.50;7.00;;;;;4.59;100.00;103483.31;5060667;28;11525;-72
2022/01/14 05:15:30;;;;;;;;;14.50;10.00;;;;;4.54;100.00;103475.53;5060704;28;11245;-72
2022/01/14 05:17:56;;;;;;;;;9.50;8.50;;;;;4.53;100.00;103486.34;5059555;28;11115;-72
2022/01/14 05:20:23;;;;;;;;;8.25;8.25;;;;;4.51;100.00;103477.53;5060671;28;11575;-71
2022/01/14 05:22:49;;;;;;;;;8.00;7.25;;;;;4.44;100.00;103479.66;5058715;28;11135;-72
2022/01/14 05:25:16;;;;;;;;;12.00;11.00;;;;;4.43;100.00;103490.47;5063247;28;11567;-72
2022/01/14 05:27:43;;;;;;;;;10.00;10.00;;;;;4.45;100.00;103477.84;5058664;28;11431;-71
2022/01/14 05:30:12;;;;;;;;;10.75;10.00;;;;;4.41;100.00;103476.28;5061037;28;11219;-72
2022/01/14 05:32:51;;;;;;;;;11.75;11.75;;;;;4.40;100.00;103466.50;5040608;28;11410;-72
2022/01/14 05:35:28;;;;;;;;;12.50;10.25;;;;;4.47;100.00;103481.31;5059859;28;11501;-71
2022/01/14 05:37:55;;;;;;;;;8.50;6.50;;;;;4.45;100.00;103481.38;5058752;28;11465;-72
2022/01/14 05:40:23;;;;;;;;;8.75;8.75;;;;;4.40;100.00;103475.41;5058130;28;12162;-72
2022/01/14 05:42:50;;;;;;;;;10.75;9.00;;;;;4.38;100.00;103477.31;5069092;28;11039;-72
2022/01/14 05:45:17;;;;;;;;;23.00;14.00;;;;;4.35;100.00;103472.13;5073665;28;11229;-72
2022/01/14 05:47:44;;;;;;;;;8.50;7.25;;;;;4.32;100.00;103483.03;5058752;28;11463;-71
2022/01/14 05:50:14;;;;;;;;;15.00;11.75;;;;;4.39;100.00;103475.50;5074706;28;11138;-72
2022/01/14 05:52:41;;;;;;;;;9.25;9.00;;;;;4.33;100.00;103472.22;5064889;28;11481;-71
2022/01/14 05:55:10;;;;;;;;;10.00;9.75;;;;;4.41;100.00;103481.63;5059640;28;11480;-72
2022/01/14 05:57:38;;;;;;;;;10.25;10.25;;;;;4.50;100.00;103483.84;5059389;28;12183;-72
2022/01/14 06:00:11;;;;;;;;;6.50;5.00;;;;;4.50;100.00;103491.88;5056167;28;11149;-72
2022/01/14 06:02:44;;;;;;;;;10.25;9.50;;;;;4.46;100.00;103501.91;5060566;28;11159;-72
2022/01/14 06:05:11;;;;;;;;;12.75;9.75;;;;;4.46;100.00;103480.47;5064769;28;11199;-71
2022/01/14 06:07:38;;;;;;;;;9.00;9.00;;;;;4.46;100.00;103475.09;5057840;28;11216;-71
2022/01/14 06:10:05;;;;;;;;;12.75;11.00;;;;;4.54;100.00;103488.06;5059690;28;11176;-72
2022/01/14 06:12:31;;;;;;;;;14.00;12.50;;;;;4.57;100.00;103487.91;5059598;28;11591;-72
2022/01/14 06:14:58;;;;;;;;;10.00;10.00;;;;;4.54;100.00;103485.41;5060763;28;12307;-72
2022/01/14 06:17:24;;;;;;;;;16.00;13.75;;;;;4.53;100.00;103486.34;5059466;28;12152;-71
2022/01/14 06:19:51;;;;;;;;;12.25;11.00;;;;;4.62;100.00;103502.78;5061389;28;11529;-72
2022/01/14 06:22:20;;;;;;;;;11.00;8.75;;;;;4.57;100.00;103487.91;5061713;28;11252;-72
2022/01/14 06:24:49;;;;;;;;;10.00;10.00;;;;;4.55;100.00;103490.66;5058091;28;11228;-72
2022/01/14 06:27:15;;;;;;;;;11.50;11.50;;;;;4.56;100.00;103487.03;5063485;28;12132;-72
2022/01/14 06:29:42;;;;;;;;;11.50;10.00;;;;;4.54;100.00;103486.25;5061699;28;11569;-72
2022/01/14 06:32:08;;;;;;;;;10.00;8.00;;;;;4.62;100.00;103493.88;5057846;28;11454;-72
2022/01/14 06:34:35;;;;;;;;;13.75;13.25;;;;;4.58;100.00;103490.50;5058580;28;11232;-72
2022/01/14 06:37:02;;;;;;;;;14.00;8.00;;;;;4.66;100.00;103489.19;5058249;28;11483;-71
2022/01/14 06:39:28;;;;;;;;;13.50;13.50;;;;;4.67;100.00;103505.22;5056930;28;11436;-71
2022/01/14 06:41:55;;;;;;;;;11.00;10.75;;;;;4.76;100.00;103491.31;5057959;28;11531;-72
2022/01/14 06:44:21;;;;;;;;;10.00;10.00;;;;;4.70;100.00;103490.75;5057385;28;11261;-72
2022/01/14 06:46:48;;;;;;;;;10.25;10.00;;;;;4.72;100.00;103486.19;5062614;28;11473;-72
2022/01/14 06:49:14;;;;;;;;;13.00;9.75;;;;;4.68;100.00;103472.06;5057543;28;11564;-72
2022/01/14 06:51:41;;;;;;;;;12.50;11.50;;;;;4.66;100.00;103486.50;5066766;28;11246;-72
2022/01/14 06:54:07;;;;;;;;;16.00;15.50;;;;;4.67;100.00;103485.56;5057902;28;11183;-72
2022/01/14 06:56:34;;;;;;;;;16.50;15.50;;;;;4.71;100.00;103498.75;5059154;28;11590;-71
2022/01/14 06:59:05;;;;;;;;;15.50;14.00;;;;;4.72;100.00;103496.94;5056529;28;11563;-72
2022/01/14 07:01:31;;;;;;;;;14.75;12.75;;;;;4.71;100.00;103481.75;5058476;28;11607;-71
2022/01/14 07:03:58;;;;;;;;;14.50;14.00;;;;;4.70;100.00;103490.75;5057426;28;11630;-72
2022/01/14 07:06:24;;;;;;;;;14.00;13.00;;;;;4.72;100.00;103491.56;5058946;28;11567;-72
2022/01/14 07:08:51;;;;;;;;;18.75;9.00;;;;;4.75;100.00;103488.72;5060612;28;11479;-71
2022/01/14 07:11:18;;;;;;;;;10.00;10.00;;;;;4.77;100.00;103493.03;5078726;28;11914;-71
2022/01/14 07:13:44;;;;;;;;;11.75;11.00;;;;;4.80;100.00;103498.22;5057853;28;11458;-72
2022/01/14 07:16:11;;;;;;;;;10.25;9.50;;;;;4.84;100.00;103502.47;5059606;28;11257;-71
2022/01/14 07:18:37;;;;;;;;;19.75;18.75;;;;;4.70;100.00;103510.41;5059708;28;11080;-71
2022/01/14 07:21:04;;;;;;;;;21.25;17.25;;;;;4.70;100.00;103513.09;5058456;28;11475;-71
2022/01/14 07:23:30;;;;;;;;;14.00;10.25;;;;;4.72;100.00;103515.72;5057828;28;11484;-72
2022/01/14 07:25:57;;;;;;;;;10.00;10.00;;;;;4.77;100.00;103521.69;5061159;28;11306;-71
2022/01/14 07:28:23;;;;;;;;;18.25;16.50;;;;;4.72;100.00;103513.91;5070080;28;11521;-71
2022/01/14 07:30:49;;;;;;;;;12.25;11.75;;;;;4.78;100.00;103523.41;5057167;28;11475;-71
2022/01/14 07:33:16;;;;;;;;;17.50;13.50;;;;;4.91;100.00;103511.03;5057577;28;12238;-71
2022/01/14 07:35:43;;;;;;;;;12.50;11.00;;;;;4.79;100.00;103503.69;5057559;28;11472;-71
2022/01/14 07:38:10;;;;;;;;;12.50;11.00;;;;;4.72;100.00;103502.28;5055732;28;11236;-71
2022/01/14 07:40:38;;;;;;;;;13.00;13.00;;;;;4.76;100.00;103517.28;5056042;28;11466;-71
2022/01/14 07:43:05;;;;;;;;;11.00;11.00;;;;;4.73;100.00;103518.31;5056247;28;11599;-71
2022/01/14 07:45:32;;;;;;;;;18.75;15.25;;;;;4.77;100.00;103521.69;5055304;28;11261;-71
2022/01/14 07:47:59;;;;;;;;;15.50;13.75;;;;;4.75;100.00;103512.84;5072488;28;11485;-71
2022/01/14 07:50:28;;;;;;;;;13.00;12.50;;;;;4.80;100.00;103521.50;5057217;28;11384;-71
2022/01/14 07:52:55;;;;;;;;;11.00;11.00;;;;;4.79;100.00;103515.28;5057427;28;11473;-70
2022/01/14 07:55:21;;;;;;;;;15.50;10.50;;;;;4.81;100.00;103518.75;5062153;28;11261;-71
2022/01/14 07:57:48;;;;;;;;;14.00;13.00;;;;;4.84;100.00;103523.94;5059904;28;11490;-72
2022/01/14 08:00:16;;;;;;;;;10.75;10.75;;;;;4.90;100.00;103520.91;5061475;28;11600;-71
2022/01/14 08:02:42;;;;;;;;;16.00;14.00;;;;;4.88;100.00;103513.88;5061242;28;11964;-71
2022/01/14 08:05:09;;;;;;;;;13.50;13.50;;;;;4.85;100.00;103519.44;5075619;28;11501;-71
2022/01/14 08:07:44;;;;;;;;;11.50;11.50;;;;;4.91;100.00;103516.41;5074702;28;11454;-71
2022/01/14 08:10:12;;;;;;;;;18.25;16.25;;;;;4.89;100.00;103511.13;5062147;28;12283;-72
2022/01/14 08:12:40;;;;;;;;;17.00;15.00;;;;;4.87;100.00;103518.38;5060195;28;11487;-72
2022/01/14 08:15:08;;;;;;;;;17.75;15.50;;;;;4.89;100.00;103521.84;5060592;28;11547;-71
2022/01/14 08:17:35;;;;;;;;;18.25;14.25;;;;;4.97;100.00;103523.25;5059450;28;11483;-71
2022/01/14 08:20:03;;;;;;;;;16.00;12.50;;;;;5.33;100.00;103522.97;5066758;28;11466;-70
2022/01/14 08:22:31;;;;;;;;;18.25;17.00;;;;;5.11;100.00;103518.81;5059407;28;11476;-71
2022/01/14 08:24:58;;;;;;;;;15.00;15.00;;;;;5.13;100.00;103516.91;5076623;28;11494;-71
2022/01/14 08:27:26;;;;;;;;;13.50;10.50;;;;;5.14;100.00;103524.00;5058549;28;11491;-71
2022/01/14 08:29:53;;;;;;;;;11.50;11.50;;;;;5.21;100.00;103519.19;5064401;28;11285;-71
2022/01/14 08:32:22;;;;;;;;;16.75;14.50;;;;;5.18;100.00;103522.00;5058169;28;11268;-71
2022/01/14 08:34:49;;;;;;;;;13.75;12.75;;;;;5.18;100.00;103528.25;5064274;28;11482;-71
2022/01/14 08:37:16;;;;;;;;;15.00;13.00;;;;;5.24;100.00;103533.28;5063958;28;11581;-71
2022/01/14 08:39:42;;;;;;;;;22.00;19.00;;;;;5.19;100.00;103529.13;5063851;28;11572;-71
2022/01/14 08:42:11;;;;;;;;;18.25;13.00;;;;;5.25;100.00;103540.41;5068139;28;11517;-71
2022/01/14 08:44:37;;;;;;;;;14.75;14.75;;;;;5.27;100.00;103537.63;5066364;28;12335;-71
2022/01/14 08:47:10;;;;;;;;;24.00;17.50;;;;;5.24;100.00;103540.47;5062262;28;11513;-71
2022/01/14 08:49:41;;;;;;;;;14.50;13.75;;;;;5.32;100.00;103531.97;5062265;28;12263;-70
2022/01/14 08:52:10;;;;;;;;;15.00;14.25;;;;;5.33;100.00;103536.38;5066848;28;11183;-70
2022/01/14 08:54:36;;;;;;;;;16.75;13.75;;;;;5.33;100.00;103534.56;5064829;28;11626;-70
2022/01/14 08:57:04;;;;;;;;;27.50;21.00;;;;;5.33;100.00;103533.72;5065289;28;11289;-71
2022/01/14 08:59:31;;;;;;;;;20.25;19.25;;;;;5.42;100.00;103533.16;5065676;28;11480;-70
2022/01/14 09:01:59;;;;;;;;;23.50;20.75;;;;;5.51;100.00;103528.13;5063854;28;11485;-71
2022/01/14 09:04:26;;;;;;;;;22.00;21.75;;;;;5.60;100.00;103533.91;5064554;28;11484;-71
2022/01/14 09:06:52;;;;;;;;;22.50;17.25;;;;;5.68;100.00;103537.00;5064957;28;11504;-71
2022/01/14 09:09:21;;;;;;;;;16.50;15.25;;;;;5.74;100.00;103528.59;5065762;28;11593;-71
2022/01/14 09:11:48;;;;;;;;;16.25;13.75;;;;;5.80;100.00;103534.47;5065773;28;11990;-70
2022/01/14 09:14:15;;;;;;;;;15.75;15.00;;;;;5.84;100.00;103536.00;5063771;28;11138;-70
2022/01/14 09:16:41;;;;;;;;;18.25;15.75;;;;;5.87;100.00;103530.44;5060154;28;11499;-70
2022/01/14 09:19:08;;;;;;;;;17.50;13.00;;;;;5.93;100.00;103533.75;5063027;28;11252;-70
2022/01/14 09:21:34;;;;;;;;;13.25;12.00;;;;;5.95;100.00;103532.72;5061286;28;11179;-71
2022/01/14 09:24:03;;;;;;;;;19.25;15.25;;;;;6.02;100.00;103527.84;5063272;28;11329;-70
2022/01/14 09:26:32;;;;;;;;;17.00;14.75;;;;;5.96;100.00;103520.16;5067514;28;11104;-70
2022/01/14 09:29:00;;;;;;;;;16.75;15.50;;;;;5.90;100.00;103521.38;5060513;28;11238;-71
2022/01/14 09:31:27;;;;;;;;;24.25;17.75;;;;;5.98;100.00;103519.09;5060117;28;11328;-71
2022/01/14 09:33:54;;;;;;;;;17.00;14.50;;;;;5.98;100.00;103521.78;5063595;28;11260;-71
2022/01/14 09:36:20;;;;;;;;;20.75;20.75;;;;;6.06;100.00;103532.06;5065140;28;11006;-71
2022/01/14 09:38:47;;;;;;;;;26.25;22.75;;;;;6.12;100.00;103524.47;5063714;28;11492;-71
2022/01/14 09:41:14;;;;;;;;;27.50;24.50;;;;;6.15;100.00;103534.19;5055525;28;12127;-70
2022/01/14 09:43:41;;;;;;;;;24.50;22.50;;;;;6.10;99.98;103534.47;5060027;28;11481;-71
2022/01/14 09:46:08;;;;;;;;;26.00;21.25;;;;;6.29;100.00;103531.53;5059206;28;11282;-71
2022/01/14 09:48:35;;;;;;;;;16.00;15.25;;;;;6.51;100.00;103528.38;5059867;28;11492;-71
2022/01/14 09:51:02;;;;;;;;;15.25;15.25;;;;;6.48;99.76;103532.09;5052772;28;11090;-70
2022/01/14 09:53:30;;;;;;;;;23.50;20.25;;;;;6.32;98.79;103531.31;5054793;28;11209;-70
2022/01/14 09:55:57;;;;;;;;;20.50;17.25;;;;;6.29;99.19;103536.03;5054245;28;12248;-70
2022/01/14 09:58:26;;;;;;;;;13.25;13.25;;;;;6.34;99.30;103542.84;5050873;28;11207;-71
2022/01/14 10:01:11;;;;;;;;;19.75;16.00;;;;;6.32;98.99;103539.41;5071076;28;10953;-70
2022/01/14 10:03:51;;;;;;;;;15.50;15.50;;;;;6.29;98.50;103538.72;5052224;28;11221;-71
2022/01/14 10:06:50;;;;;;;;;15.75;14.75;;;;;6.32;98.61;103536.72;5051674;28;11169;-70
2022/01/14 10:09:22;;;;;;;;;17.75;15.00;;;;;6.38;98.60;103538.16;5050672;28;11741;-71
2022/01/14 10:12:13;;;;;;;;;15.50;12.25;;;;;6.36;98.28;103538.25;5050801;28;11232;-70
2022/01/14 10:14:45;;;;;;;;;12.00;11.75;;;;;6.44;98.70;103546.72;5065107;28;11186;-73
2022/01/14 10:17:12;;;;;;;;;18.00;15.25;;;;;6.39;98.40;103542.56;5045360;28;11838;-70
2022/01/14 10:19:43;;;;;;;;;8.25;8.00;;;;;6.45;98.37;103540.38;5048035;28;11292;-70
2022/01/14 10:22:28;;;;;;;;;19.00;16.25;;;;;6.37;97.80;103542.66;5046959;28;10903;-70
2022/01/14 10:25:08;;;;;;;;;13.00;12.25;;;;;6.45;98.47;103536.81;5049827;28;10956;-71
2022/01/14 10:27:40;;;;;;;;;12.00;9.00;;;;;6.46;97.92;103543.94;5049619;28;11886;-69
2022/01/14 10:30:29;;;;;;;;;17.00;15.50;;;;;6.46;97.55;103560.09;5050676;28;10837;-70
2022/01/14 10:33:03;;;;;;;;;14.00;12.00;;;;;6.50;97.87;103553.53;5051230;28;11109;-70
2022/01/14 10:35:34;;;;;;;;;11.75;11.25;;;;;6.52;98.07;103548.94;5048021;28;11591;-70
2022/01/14 10:38:03;;;;;;;;;10.25;10.25;;;;;6.50;97.60;103553.53;5048072;28;10869;-70
2022/01/14 10:40:34;;;;;;;;;16.00;15.00;;;;;6.53;97.98;103545.28;5051041;28;10998;-70
2022/01/14 10:43:06;;;;;;;;;13.50;11.50;;;;;6.50;97.77;103547.28;5047789;28;11571;-70
2022/01/14 10:45:52;;;;;;;;;16.00;13.75;;;;;6.53;97.23;103541.72;5047548;28;10687;-71
2022/01/14 10:48:32;;;;;;;;;15.00;14.00;;;;;6.54;96.81;103549.69;5063282;28;10857;-70
2022/01/14 10:51:01;;;;;;;;;9.00;7.50;;;;;6.57;96.68;103552.19;5048707;28;11069;-71
2022/01/14 10:53:32;;;;;;;;;12.75;10.25;;;;;6.58;96.88;103553.06;5047892;28;11890;-71
2022/01/14 10:56:04;;;;;;;;;14.00;14.00;;;;;6.56;96.35;103549.59;5047459;28;10762;-70
2022/01/14 10:58:34;;;;;;;;;17.00;14.25;;;;;6.55;95.58;103550.56;5066462;28;10872;-70
2022/01/14 11:01:08;;;;;;;;;20.75;14.75;;;;;6.52;95.73;103551.63;5045703;28;11121;-70
2022/01/14 11:03:43;;;;;;;;;19.50;15.25;;;;;6.56;95.85;103555.84;5054645;28;11610;-70
2022/01/14 11:06:38;;;;;;;;;12.25;11.00;;;;;6.56;95.76;103546.91;5053883;28;10956;-71
2022/01/14 11:09:08;;;;;;;;;18.75;13.00;;;;;6.55;95.56;103535.28;5059295;28;10770;-70
2022/01/14 11:11:40;;;;;;;;;19.00;15.75;;;;;6.47;94.85;103545.66;5060312;28;11033;-70
2022/01/14 11:14:08;;;;;;;;;15.50;14.00;;;;;6.53;95.67;103534.50;5057388;28;10934;-70
2022/01/14 11:16:37;;;;;;;;;18.25;15.00;;;;;6.48;95.35;103542.00;5060271;28;11456;-69
2022/01/14 11:19:07;;;;;;;;;19.50;17.25;;;;;6.51;95.48;103544.50;5059403;28;11017;-69
2022/01/14 11:24:30;;;;;;;;;11.25;10.50;;;;;6.56;94.75;103538.84;5059494;28;10971;-70
2022/01/14 11:27:03;;;;;;;;;12.25;12.25;;;;;6.64;94.90;103539.19;5059236;28;10844;-70
2022/01/14 11:29:36;;;;;;;;;18.00;17.50;;;;;6.55;95.13;103543.34;5061819;28;10686;-69
2022/01/14 11:32:05;;;;;;;;;16.50;14.75;;;;;6.62;95.71;103535.75;5063759;28;10999;-69
2022/01/14 11:34:42;;;;;;;;;14.75;13.50;;;;;6.69;95.68;103534.38;5064348;28;11084;-70
2022/01/14 11:37:11;;;;;;;;;14.25;14.25;;;;;6.66;95.07;103542.66;5063772;28;10806;-69
2022/01/14 11:39:39;;;;;;;;;11.50;9.00;;;;;6.71;95.29;103548.66;5062667;28;11125;-70
2022/01/14 11:42:13;;;;;;;;;18.50;17.25;;;;;6.63;94.87;103541.03;5063335;28;10839;-70
2022/01/14 11:44:43;;;;;;;;;11.75;11.00;;;;;6.65;95.01;103541.78;5063011;28;11956;-69
2022/01/14 11:47:25;;;;;;;;;14.50;11.00;;;;;6.73;95.42;103538.63;5077260;28;10949;-69
2022/01/14 11:49:54;;;;;;;;;10.25;10.00;;;;;6.69;94.69;103537.97;5064181;28;10769;-69